< < Back
Terminal Aerodrome Forecast


Current Version              Previous Versions:   1  2  3  4  5  6  7  8  9  

Terminal Aerodrome Forecast

511
FTUS42 KTAE 131120
TAFABY
TAF
KABY 131120Z 1312/1412 35010KT P6SM SKC
      TEMPO 1312/1316 35013G23KT
     FM132300 01003KT P6SM SKC=

Latest METAR

643
SAUS70 KWBC 140400 RRD
MTRABY
METAR KABY 140353Z AUTO 02004KT 10SM CLR 05/M09 A3038 RMK AO2 SLP287
T00501094


USA.gov is the U.S. government's official web portal to all federal, state and local government web resources and services.